Time;durP1;ratioP1;P1;durP2;ratioP2;P2;SDS_P1;SDS_P2;PMS_P1;PMS_P2;Temp;Humidity;BMP_temperature;BMP_pressure;BME280_temperature;BME280_humidity;BME280_pressure;Samples;Min_cycle;Max_cycle;Signal;HPM_P1;HPM_P2
2022/08/20 00:01:40;;;;;;;0.70;0.70;;;;;;;;;;8375276;28;20036;-58
2022/08/20 00:05:42;;;;;;;0.98;0.98;;;;;;;;;;8376290;28;20059;-58
2022/08/20 00:09:43;;;;;;;0.93;0.90;;;;;;;;;;8379254;28;20035;-57
2022/08/20 00:13:46;;;;;;;1.15;0.90;;;;;;;;;;8382619;28;20025;-58
2022/08/20 00:17:49;;;;;;;1.33;0.90;;;;;;;;;;8377223;28;20067;-58
2022/08/20 00:21:49;;;;;;;0.73;0.73;;;;;;;;;;8377833;28;20987;-57
2022/08/20 00:25:50;;;;;;;1.77;1.05;;;;;;;;;;8378981;28;20429;-57
2022/08/20 00:29:50;;;;;;;1.88;0.90;;;;;;;;;;8376202;28;20822;-57
2022/08/20 00:33:51;;;;;;;0.90;0.90;;;;;;;;;;8372295;28;20032;-57
2022/08/20 00:37:51;;;;;;;0.90;0.80;;;;;;;;;;8377658;28;20584;-57
2022/08/20 00:41:52;;;;;;;2.00;0.80;;;;;;;;;;8377973;28;20028;-57
2022/08/20 00:45:55;;;;;;;0.95;0.90;;;;;;;;;;8377811;28;20045;-58
2022/08/20 00:49:55;;;;;;;2.42;0.90;;;;;;;;;;8375092;28;20122;-57
2022/08/20 00:54:00;;;;;;;0.90;0.90;;;;;;;;;;8374327;28;20048;-57
2022/08/20 00:58:04;;;;;;;4.88;1.42;;;;;;;;;;8372868;28;20135;-58
2022/08/20 01:02:06;;;;;;;2.75;1.10;;;;;;;;;;8374304;28;20037;-58
2022/08/20 01:06:08;;;;;;;1.73;0.85;;;;;;;;;;8374743;28;20527;-58
2022/08/20 01:10:13;;;;;;;1.15;0.90;;;;;;;;;;8373906;28;20016;-57
2022/08/20 01:18:33;;;;;;;1.15;1.00;;;;;;;;;;8371951;28;20043;-58
2022/08/20 01:26:59;;;;;;;1.10;0.90;;;;;;;;;;8368840;28;20035;-58
2022/08/20 01:30:59;;;;;;;0.75;0.75;;;;;;;;;;8368245;28;20048;-58
2022/08/20 01:35:00;;;;;;;1.03;0.90;;;;;;;;;;8371809;28;20067;-58
2022/08/20 01:39:00;;;;;;;1.00;0.93;;;;;;;;;;8373916;28;20031;-58
2022/08/20 01:43:04;;;;;;;1.35;0.90;;;;;;;;;;8368302;28;20027;-58
2022/08/20 01:47:07;;;;;;;1.13;0.88;;;;;;;;;;8368893;28;20039;-58
2022/08/20 01:51:08;;;;;;;0.85;0.85;;;;;;;;;;8370396;28;20032;-58
2022/08/20 01:55:09;;;;;;;0.95;0.85;;;;;;;;;;8372931;28;20021;-57
2022/08/20 01:59:09;;;;;;;1.70;0.90;;;;;;;;;;8371372;28;20568;-57
2022/08/20 02:03:09;;;;;;;1.10;1.10;;;;;;;;;;8370843;28;20043;-57
2022/08/20 02:07:14;;;;;;;2.30;1.10;;;;;;;;;;8368415;28;20060;-58
2022/08/20 02:11:15;;;;;;;1.05;1.05;;;;;;;;;;8371879;28;20278;-58
2022/08/20 02:15:16;;;;;;;1.02;0.93;;;;;;;;;;8371864;28;20955;-58
2022/08/20 02:19:22;;;;;;;1.25;1.15;;;;;;;;;;8369885;28;20055;-57
2022/08/20 02:23:23;;;;;;;1.10;1.10;;;;;;;;;;8370877;28;20031;-57
2022/08/20 02:27:23;;;;;;;1.27;1.17;;;;;;;;;;8369403;28;20020;-58
2022/08/20 02:31:23;;;;;;;1.10;1.10;;;;;;;;;;8368808;28;20290;-57
2022/08/20 02:35:24;;;;;;;1.02;1.02;;;;;;;;;;8368151;28;20099;-57
2022/08/20 02:39:25;;;;;;;1.13;1.10;;;;;;;;;;8371354;28;20063;-58
2022/08/20 02:43:25;;;;;;;1.00;1.00;;;;;;;;;;8371711;28;20467;-57
2022/08/20 02:47:26;;;;;;;1.20;1.10;;;;;;;;;;8372755;28;20033;-58
2022/08/20 02:51:26;;;;;;;2.58;1.13;;;;;;;;;;8371057;28;20093;-57
2022/08/20 02:55:27;;;;;;;1.17;1.10;;;;;;;;;;8372998;28;20678;-58
2022/08/20 02:59:27;;;;;;;1.67;1.10;;;;;;;;;;8370302;28;20315;-58
2022/08/20 03:03:28;;;;;;;2.25;1.27;;;;;;;;;;8372921;28;20043;-58
2022/08/20 03:07:28;;;;;;;1.30;1.13;;;;;;;;;;8379310;28;20020;-58
2022/08/20 03:11:28;;;;;;;1.20;1.10;;;;;;;;;;8385762;28;20166;-58
2022/08/20 03:15:29;;;;;;;1.17;1.00;;;;;;;;;;8385507;28;20428;-57
2022/08/20 03:19:30;;;;;;;1.40;1.10;;;;;;;;;;8389523;28;20128;-57
2022/08/20 03:23:30;;;;;;;1.37;0.90;;;;;;;;;;8388263;28;20032;-57
2022/08/20 03:27:32;;;;;;;1.15;1.05;;;;;;;;;;8383399;28;20028;-57
2022/08/20 03:31:32;;;;;;;1.00;1.00;;;;;;;;;;8384813;28;20119;-57
2022/08/20 03:35:33;;;;;;;1.00;1.00;;;;;;;;;;8386876;28;20108;-57
2022/08/20 03:39:33;;;;;;;1.67;1.10;;;;;;;;;;8390888;28;20028;-57
2022/08/20 03:43:34;;;;;;;1.75;1.30;;;;;;;;;;8388339;28;20023;-57
2022/08/20 03:47:34;;;;;;;1.48;1.35;;;;;;;;;;8386827;28;20047;-57
2022/08/20 03:51:36;;;;;;;1.23;1.23;;;;;;;;;;8389167;28;20028;-57
2022/08/20 03:55:39;;;;;;;1.40;1.30;;;;;;;;;;8392539;28;20013;-57
2022/08/20 04:00:05;;;;;;;1.30;1.20;;;;;;;;;;8390449;28;20066;-57
2022/08/20 04:04:05;;;;;;;1.70;1.58;;;;;;;;;;8382708;28;20532;-57
2022/08/20 04:08:10;;;;;;;1.50;1.40;;;;;;;;;;8386267;28;20032;-58
2022/08/20 04:12:11;;;;;;;1.63;1.52;;;;;;;;;;8387922;28;20036;-57
2022/08/20 04:16:12;;;;;;;1.80;1.50;;;;;;;;;;8387322;28;20063;-57
2022/08/20 04:20:13;;;;;;;1.98;1.83;;;;;;;;;;8390895;28;20032;-58
2022/08/20 04:24:14;;;;;;;2.05;1.85;;;;;;;;;;8383991;28;20023;-57
2022/08/20 04:28:23;;;;;;;2.30;1.90;;;;;;;;;;8385735;28;20027;-57
2022/08/20 04:32:23;;;;;;;2.22;2.03;;;;;;;;;;8383178;28;20021;-57
2022/08/20 04:36:24;;;;;;;2.25;2.05;;;;;;;;;;8384122;28;20439;-57
2022/08/20 04:44:55;;;;;;;2.70;2.50;;;;;;;;;;8368334;28;20074;-58
2022/08/20 04:48:56;;;;;;;2.78;2.58;;;;;;;;;;8380947;28;20064;-57
2022/08/20 04:52:58;;;;;;;2.70;2.50;;;;;;;;;;8379942;28;20037;-57
2022/08/20 04:57:00;;;;;;;2.90;2.70;;;;;;;;;;8381179;28;20012;-58
2022/08/20 05:01:03;;;;;;;3.20;2.90;;;;;;;;;;8377826;28;20720;-57
2022/08/20 05:05:03;;;;;;;;;;;;;;;;;;8385607;28;20024;-57
2022/08/20 05:09:04;;;;;;;3.00;2.70;;;;;;;;;;8385747;28;19967;-58
2022/08/20 05:13:05;;;;;;;3.00;2.70;;;;;;;;;;8388252;28;20024;-57
2022/08/20 05:17:06;;;;;;;3.08;2.58;;;;;;;;;;8384850;28;20071;-58
2022/08/20 05:21:06;;;;;;;2.70;2.50;;;;;;;;;;8379618;28;20032;-58
2022/08/20 05:25:08;;;;;;;5.43;2.78;;;;;;;;;;8381200;28;20423;-57
2022/08/20 05:29:08;;;;;;;4.05;2.50;;;;;;;;;;8384228;28;20068;-58
2022/08/20 05:33:09;;;;;;;2.60;2.40;;;;;;;;;;8379642;28;20040;-57
2022/08/20 05:37:09;;;;;;;2.30;2.10;;;;;;;;;;8382075;28;20016;-57
2022/08/20 05:41:09;;;;;;;2.40;2.20;;;;;;;;;;8380300;28;20020;-57
2022/08/20 05:45:10;;;;;;;3.40;2.05;;;;;;;;;;8378394;28;20024;-57
2022/08/20 05:49:12;;;;;;;2.20;2.00;;;;;;;;;;8383032;28;20029;-57
2022/08/20 05:53:13;;;;;;;1.75;1.65;;;;;;;;;;8386342;28;20035;-57
2022/08/20 05:57:21;;;;;;;1.83;1.73;;;;;;;;;;8384937;28;20028;-57
2022/08/20 06:01:21;;;;;;;2.10;2.00;;;;;;;;;;8384001;28;20100;-56
2022/08/20 06:05:22;;;;;;;1.83;1.70;;;;;;;;;;8381483;28;20100;-57
2022/08/20 06:09:24;;;;;;;1.92;1.67;;;;;;;;;;8375673;28;20016;-57
2022/08/20 06:13:25;;;;;;;1.58;1.48;;;;;;;;;;8376212;28;20049;-57
2022/08/20 06:17:26;;;;;;;1.50;1.40;;;;;;;;;;8379506;28;20490;-57
2022/08/20 06:21:26;;;;;;;1.50;1.40;;;;;;;;;;8378735;28;20028;-57
2022/08/20 06:25:28;;;;;;;1.90;1.50;;;;;;;;;;8374954;28;20025;-57
2022/08/20 06:29:28;;;;;;;1.60;1.50;;;;;;;;;;8368922;28;20024;-57
2022/08/20 06:33:29;;;;;;;1.50;1.40;;;;;;;;;;8369968;28;20389;-57
2022/08/20 06:37:31;;;;;;;1.40;1.30;;;;;;;;;;8374317;28;20039;-57
2022/08/20 06:41:31;;;;;;;1.67;1.33;;;;;;;;;;8379052;28;20036;-57
2022/08/20 06:45:31;;;;;;;1.40;1.30;;;;;;;;;;8385337;28;20044;-57
2022/08/20 06:49:35;;;;;;;1.33;1.23;;;;;;;;;;8383297;28;20033;-58
2022/08/20 06:53:36;;;;;;;1.85;1.35;;;;;;;;;;8394811;28;20032;-58
2022/08/20 06:57:36;;;;;;;1.50;1.40;;;;;;;;;;8383200;28;20016;-58
2022/08/20 07:01:37;;;;;;;2.42;1.45;;;;;;;;;;8382946;28;20085;-57
2022/08/20 07:05:40;;;;;;;1.65;1.50;;;;;;;;;;8381529;28;20749;-57
2022/08/20 07:09:41;;;;;;;1.98;1.50;;;;;;;;;;8380925;28;20127;-57
2022/08/20 07:13:41;;;;;;;1.50;1.40;;;;;;;;;;8379309;28;20040;-58
2022/08/20 07:17:41;;;;;;;1.40;1.30;;;;;;;;;;8379881;28;20036;-57
2022/08/20 07:21:41;;;;;;;1.63;1.52;;;;;;;;;;8380172;28;20024;-57
2022/08/20 07:34:41;;;;;;;2.38;1.30;;;;;;;;;;8377589;28;20106;-58
2022/08/20 07:38:44;;;;;;;4.50;1.58;;;;;;;;;;8383214;28;20052;-57
2022/08/20 07:42:44;;;;;;;7.47;1.75;;;;;;;;;;8376088;28;20036;-58
2022/08/20 07:46:45;;;;;;;4.30;1.63;;;;;;;;;;8377456;28;20130;-57
2022/08/20 07:50:45;;;;;;;3.75;1.45;;;;;;;;;;8377168;28;20290;-57
2022/08/20 07:54:46;;;;;;;1.20;1.10;;;;;;;;;;8375521;28;20024;-57
2022/08/20 07:58:51;;;;;;;5.70;1.30;;;;;;;;;;8381258;28;20027;-57
2022/08/20 08:02:52;;;;;;;4.63;1.30;;;;;;;;;;8394307;28;20045;-58
2022/08/20 08:06:54;;;;;;;3.85;1.10;;;;;;;;;;8401762;28;20052;-58
2022/08/20 08:10:57;;;;;;;1.35;1.08;;;;;;;;;;8399916;28;20159;-58
2022/08/20 08:14:58;;;;;;;4.78;1.05;;;;;;;;;;8399493;28;20020;-58
2022/08/20 08:19:00;;;;;;;0.98;0.98;;;;;;;;;;8400344;28;20056;-59
2022/08/20 08:23:01;;;;;;;0.90;0.90;;;;;;;;;;8387275;28;20028;-60
2022/08/20 08:27:01;;;;;;;1.02;0.93;;;;;;;;;;8389505;28;20502;-59
2022/08/20 08:31:01;;;;;;;1.10;0.82;;;;;;;;;;8385670;28;20147;-58
2022/08/20 08:35:03;;;;;;;0.60;0.60;;;;;;;;;;8387386;28;20025;-59
2022/08/20 08:39:03;;;;;;;1.30;0.52;;;;;;;;;;8381886;28;20031;-59
2022/08/20 08:43:04;;;;;;;0.60;0.60;;;;;;;;;;8378528;28;20021;-59
2022/08/20 08:47:17;;;;;;;0.50;0.50;;;;;;;;;;8376172;28;20033;-59
2022/08/20 08:51:18;;;;;;;;;;;;;;;;;;8377210;28;20027;-59
2022/08/20 08:55:19;;;;;;;0.50;0.50;;;;;;;;;;8380918;28;19919;-59
2022/08/20 08:59:30;;;;;;;0.60;0.60;;;;;;;;;;8379170;28;20034;-59
2022/08/20 09:03:31;;;;;;;0.50;0.50;;;;;;;;;;8378059;28;20657;-60
2022/08/20 09:07:32;;;;;;;0.60;0.60;;;;;;;;;;8377940;28;20020;-58
2022/08/20 09:11:44;;;;;;;3.20;0.70;;;;;;;;;;8380367;28;20035;-59
2022/08/20 09:15:45;;;;;;;0.52;0.52;;;;;;;;;;8377243;28;20044;-59
2022/08/20 09:19:46;;;;;;;1.17;0.50;;;;;;;;;;8375140;28;20043;-59
2022/08/20 09:23:46;;;;;;;0.40;0.40;;;;;;;;;;8376581;28;20030;-60
2022/08/20 09:27:46;;;;;;;0.50;0.50;;;;;;;;;;8379793;28;20024;-59
2022/08/20 09:31:47;;;;;;;0.60;0.60;;;;;;;;;;8387954;28;20040;-59
2022/08/20 09:35:47;;;;;;;1.42;0.50;;;;;;;;;;8380507;28;20749;-59
2022/08/20 09:39:48;;;;;;;0.68;0.50;;;;;;;;;;8382877;28;20632;-59
2022/08/20 09:43:48;;;;;;;1.38;0.70;;;;;;;;;;8380778;28;20067;-58
2022/08/20 09:47:48;;;;;;;1.40;0.60;;;;;;;;;;8383563;28;20185;-58
2022/08/20 09:51:48;;;;;;;1.73;0.40;;;;;;;;;;8382088;28;20032;-59
2022/08/20 09:55:50;;;;;;;0.57;0.50;;;;;;;;;;8381956;28;20032;-59
2022/08/20 09:59:52;;;;;;;0.50;0.50;;;;;;;;;;8379047;28;20405;-58
2022/08/20 10:03:53;;;;;;;0.50;0.50;;;;;;;;;;8380848;28;20040;-59
2022/08/20 10:08:27;;;;;;;0.50;0.50;;;;;;;;;;8384931;28;20063;-59
2022/08/20 10:12:27;;;;;;;0.73;0.50;;;;;;;;;;8386242;28;20035;-58
2022/08/20 10:16:28;;;;;;;0.50;0.50;;;;;;;;;;8386453;28;20283;-58
2022/08/20 10:20:28;;;;;;;0.80;0.50;;;;;;;;;;8383005;28;20350;-59
2022/08/20 10:24:28;;;;;;;0.50;0.50;;;;;;;;;;8387684;28;20048;-59
2022/08/20 10:28:28;;;;;;;0.40;0.40;;;;;;;;;;8378438;28;20351;-58
2022/08/20 10:32:29;;;;;;;0.95;0.47;;;;;;;;;;8375042;28;20054;-58
2022/08/20 10:36:29;;;;;;;0.53;0.53;;;;;;;;;;8380193;28;20214;-58
2022/08/20 10:40:29;;;;;;;1.10;0.40;;;;;;;;;;8372718;28;20012;-59
2022/08/20 10:44:29;;;;;;;0.43;0.43;;;;;;;;;;8373442;28;20046;-59
2022/08/20 10:48:29;;;;;;;0.50;0.50;;;;;;;;;;8369201;28;20036;-58
2022/08/20 10:52:30;;;;;;;1.90;0.60;;;;;;;;;;8380754;28;20063;-58
2022/08/20 10:56:30;;;;;;;1.37;0.60;;;;;;;;;;8385802;28;20423;-58
2022/08/20 11:00:30;;;;;;;0.52;0.40;;;;;;;;;;8383380;28;20040;-58
2022/08/20 11:04:31;;;;;;;0.50;0.50;;;;;;;;;;8380087;28;20025;-58
2022/08/20 11:09:02;;;;;;;0.50;0.50;;;;;;;;;;8382994;28;20090;-57
2022/08/20 11:13:05;;;;;;;1.40;0.70;;;;;;;;;;8404649;28;20025;-58
2022/08/20 11:17:05;;;;;;;1.80;0.68;;;;;;;;;;8381269;28;20029;-58
2022/08/20 11:21:05;;;;;;;0.83;0.60;;;;;;;;;;8385412;28;20098;-58
2022/08/20 11:25:06;;;;;;;0.60;0.60;;;;;;;;;;8384275;28;20263;-58
2022/08/20 11:29:06;;;;;;;0.50;0.50;;;;;;;;;;8390595;28;20020;-58
2022/08/20 11:33:06;;;;;;;0.73;0.60;;;;;;;;;;8397415;28;20068;-58
2022/08/20 11:37:09;;;;;;;2.20;0.70;;;;;;;;;;8401207;28;20016;-58
2022/08/20 11:41:09;;;;;;;2.03;0.70;;;;;;;;;;8397803;28;20039;-59
2022/08/20 11:45:09;;;;;;;0.65;0.65;;;;;;;;;;8398565;28;20012;-59
2022/08/20 11:49:10;;;;;;;0.70;0.70;;;;;;;;;;8405123;28;20078;-59
2022/08/20 11:53:10;;;;;;;4.80;1.00;;;;;;;;;;8402301;28;20025;-59
2022/08/20 11:57:10;;;;;;;1.80;0.90;;;;;;;;;;8400923;28;20038;-59
2022/08/20 12:01:10;;;;;;;2.53;0.95;;;;;;;;;;8392645;28;20128;-59
2022/08/20 12:05:11;;;;;;;2.13;1.10;;;;;;;;;;8404943;28;20040;-59
2022/08/20 12:09:14;;;;;;;3.83;1.00;;;;;;;;;;8407470;28;20054;-59
2022/08/20 12:13:14;;;;;;;1.80;0.90;;;;;;;;;;8398241;28;20027;-59
2022/08/20 12:17:18;;;;;;;1.38;1.10;;;;;;;;;;8377354;28;20028;-59
2022/08/20 12:21:19;;;;;;;4.15;1.20;;;;;;;;;;8370855;28;20048;-58
2022/08/20 12:25:20;;;;;;;1.60;1.20;;;;;;;;;;8373033;28;20383;-58
2022/08/20 12:29:20;;;;;;;3.10;1.10;;;;;;;;;;8368968;28;20021;-58
2022/08/20 12:33:20;;;;;;;1.75;1.10;;;;;;;;;;8372065;28;20653;-57
2022/08/20 12:37:22;;;;;;;3.53;1.13;;;;;;;;;;8375325;28;20534;-58
2022/08/20 12:41:22;;;;;;;2.25;1.23;;;;;;;;;;8372267;28;20042;-58
2022/08/20 12:45:22;;;;;;;1.50;1.10;;;;;;;;;;8365427;28;20044;-58
2022/08/20 12:49:22;;;;;;;1.20;1.00;;;;;;;;;;8369032;28;20031;-58
2022/08/20 12:53:22;;;;;;;2.13;1.30;;;;;;;;;;8378542;28;20029;-59
2022/08/20 12:57:27;;;;;;;3.75;1.00;;;;;;;;;;8364115;28;20029;-58
2022/08/20 13:01:27;;;;;;;3.47;1.20;;;;;;;;;;8368656;28;20432;-58
2022/08/20 13:05:28;;;;;;;1.23;1.10;;;;;;;;;;8376070;28;20115;-58
2022/08/20 13:09:28;;;;;;;3.53;1.30;;;;;;;;;;8373762;28;20017;-58
2022/08/20 13:13:28;;;;;;;1.00;0.90;;;;;;;;;;8372599;28;20032;-58
2022/08/20 13:17:28;;;;;;;0.80;0.80;;;;;;;;;;8370055;28;20051;-58
2022/08/20 13:21:29;;;;;;;1.85;0.90;;;;;;;;;;8375089;28;20031;-58
2022/08/20 13:25:29;;;;;;;1.08;1.00;;;;;;;;;;8373199;28;20032;-58
2022/08/20 13:29:30;;;;;;;1.83;0.80;;;;;;;;;;8368199;28;20028;-58
2022/08/20 13:33:30;;;;;;;1.65;0.80;;;;;;;;;;8370706;28;20123;-59
2022/08/20 13:37:30;;;;;;;2.50;0.90;;;;;;;;;;8371008;28;20024;-59
2022/08/20 13:41:30;;;;;;;1.33;0.80;;;;;;;;;;8373837;28;20119;-58
2022/08/20 13:45:30;;;;;;;1.07;0.97;;;;;;;;;;8374143;28;20158;-58
2022/08/20 13:49:31;;;;;;;2.15;0.90;;;;;;;;;;8376200;28;20197;-58
2022/08/20 13:53:32;;;;;;;1.02;0.80;;;;;;;;;;8372935;28;20024;-59
2022/08/20 13:57:32;;;;;;;0.90;0.90;;;;;;;;;;8370138;28;20027;-58
2022/08/20 14:01:32;;;;;;;1.30;1.00;;;;;;;;;;8369121;28;20358;-58
2022/08/20 14:05:33;;;;;;;0.85;0.80;;;;;;;;;;8373542;28;20012;-58
2022/08/20 14:09:36;;;;;;;1.50;1.10;;;;;;;;;;8375763;28;20105;-58
2022/08/20 14:13:36;;;;;;;4.10;1.20;;;;;;;;;;8377341;28;20020;-58
2022/08/20 14:17:38;;;;;;;1.80;1.10;;;;;;;;;;8373226;28;20396;-58
2022/08/20 14:21:38;;;;;;;1.00;0.90;;;;;;;;;;8373775;28;20040;-58
2022/08/20 14:25:39;;;;;;;5.78;1.00;;;;;;;;;;8378259;28;20029;-58
2022/08/20 14:29:41;;;;;;;1.10;1.02;;;;;;;;;;8377333;28;20399;-57
2022/08/20 14:33:42;;;;;;;1.50;1.10;;;;;;;;;;8373647;28;20079;-58
2022/08/20 14:37:45;;;;;;;1.25;1.15;;;;;;;;;;8371441;28;20021;-58
2022/08/20 14:41:45;;;;;;;1.30;1.20;;;;;;;;;;8377328;28;20093;-58
2022/08/20 14:45:48;;;;;;;2.42;1.10;;;;;;;;;;8374732;28;20072;-58
2022/08/20 14:49:48;;;;;;;;;;;;;;;;;;8382369;28;20065;-58
2022/08/20 14:53:49;;;;;;;4.53;1.38;;;;;;;;;;8381036;28;19912;-58
2022/08/20 14:57:49;;;;;;;2.03;1.23;;;;;;;;;;8376708;28;20080;-58
2022/08/20 15:01:50;;;;;;;1.40;1.30;;;;;;;;;;8377942;28;20036;-58
2022/08/20 15:05:50;;;;;;;1.85;1.40;;;;;;;;;;8380180;28;20020;-58
2022/08/20 15:09:50;;;;;;;1.52;1.38;;;;;;;;;;8382494;28;20052;-59
2022/08/20 15:13:52;;;;;;;2.25;1.15;;;;;;;;;;8383483;28;20733;-58
2022/08/20 15:17:53;;;;;;;;;;;;;;;;;;8383998;28;20040;-59
2022/08/20 15:21:55;;;;;;;1.23;1.10;;;;;;;;;;8385386;28;19909;-60
2022/08/20 15:25:55;;;;;;;1.70;1.40;;;;;;;;;;8395698;28;20055;-58
2022/08/20 15:29:55;;;;;;;1.58;1.30;;;;;;;;;;8378907;28;20024;-59
2022/08/20 15:33:55;;;;;;;1.50;1.40;;;;;;;;;;8387597;28;20054;-59
2022/08/20 15:37:56;;;;;;;1.73;1.52;;;;;;;;;;8391097;28;20020;-59
2022/08/20 15:41:56;;;;;;;3.03;1.40;;;;;;;;;;8393888;28;20025;-59
2022/08/20 15:45:57;;;;;;;3.45;1.50;;;;;;;;;;8392808;28;20704;-59
2022/08/20 15:50:07;;;;;;;1.40;1.30;;;;;;;;;;8390376;28;20021;-59
2022/08/20 15:54:12;;;;;;;1.50;1.25;;;;;;;;;;8393771;28;20017;-58
2022/08/20 15:58:16;;;;;;;1.40;1.30;;;;;;;;;;8388583;28;20027;-58
2022/08/20 16:02:36;;;;;;;1.67;1.10;;;;;;;;;;8390373;28;20032;-58
2022/08/20 16:06:36;;;;;;;1.23;1.20;;;;;;;;;;8392148;28;20024;-58
2022/08/20 16:10:55;;;;;;;1.95;1.20;;;;;;;;;;8389437;28;20105;-58
2022/08/20 16:14:58;;;;;;;1.52;1.42;;;;;;;;;;8388737;28;20035;-58
2022/08/20 16:18:58;;;;;;;1.33;1.20;;;;;;;;;;8389545;28;20036;-59
2022/08/20 16:22:59;;;;;;;1.38;1.13;;;;;;;;;;8386452;28;20055;-59
2022/08/20 16:27:22;;;;;;;1.70;1.17;;;;;;;;;;8385799;28;20099;-58
2022/08/20 16:31:24;;;;;;;1.25;1.20;;;;;;;;;;8365045;28;20051;-59
2022/08/20 16:35:24;;;;;;;1.38;1.27;;;;;;;;;;8384578;28;20529;-57
2022/08/20 16:39:26;;;;;;;1.40;1.27;;;;;;;;;;8383901;28;20122;-58
2022/08/20 16:43:35;;;;;;;1.85;1.30;;;;;;;;;;8385305;28;20039;-58
2022/08/20 16:47:36;;;;;;;2.88;1.20;;;;;;;;;;8384343;28;20185;-58
2022/08/20 16:51:47;;;;;;;1.80;1.25;;;;;;;;;;8383743;28;20032;-59
2022/08/20 16:55:47;;;;;;;1.65;1.48;;;;;;;;;;8377436;28;20025;-59
2022/08/20 16:59:54;;;;;;;2.10;1.20;;;;;;;;;;8376661;28;20206;-58
2022/08/20 17:03:54;;;;;;;1.45;1.08;;;;;;;;;;8379341;28;20043;-58
2022/08/20 17:07:58;;;;;;;1.38;1.27;;;;;;;;;;8388409;28;20099;-58
2022/08/20 17:12:18;;;;;;;1.63;1.30;;;;;;;;;;8386718;28;20443;-58
2022/08/20 17:16:19;;;;;;;1.90;1.17;;;;;;;;;;8386869;28;20039;-59
2022/08/20 17:20:20;;;;;;;1.20;1.10;;;;;;;;;;8377169;28;20119;-58
2022/08/20 17:24:29;;;;;;;4.10;1.30;;;;;;;;;;8376268;28;20541;-58
2022/08/20 17:28:31;;;;;;;1.33;1.10;;;;;;;;;;8370997;28;20390;-58
2022/08/20 17:32:32;;;;;;;2.25;1.40;;;;;;;;;;8368433;28;20040;-58
2022/08/20 17:36:33;;;;;;;5.32;1.45;;;;;;;;;;8370801;28;20031;-58
2022/08/20 17:40:44;;;;;;;3.63;1.40;;;;;;;;;;8373136;28;20441;-59
2022/08/20 17:45:11;;;;;;;2.67;1.55;;;;;;;;;;8372925;28;20218;-58
2022/08/20 17:49:16;;;;;;;3.95;1.40;;;;;;;;;;8371605;28;20407;-58
2022/08/20 17:53:30;;;;;;;3.08;1.50;;;;;;;;;;8373113;28;20471;-59
2022/08/20 17:57:35;;;;;;;3.65;1.70;;;;;;;;;;8368010;28;20096;-58
2022/08/20 18:01:35;;;;;;;2.90;1.55;;;;;;;;;;8370227;28;20667;-58
2022/08/20 18:05:37;;;;;;;1.40;1.30;;;;;;;;;;8373314;28;20513;-58
2022/08/20 18:09:37;;;;;;;2.38;1.40;;;;;;;;;;8370630;28;20430;-59
2022/08/20 18:13:40;;;;;;;3.05;1.70;;;;;;;;;;8376672;28;20349;-57
2022/08/20 18:17:40;;;;;;;;;;;;;;;;;;8376782;28;20419;-58
2022/08/20 18:21:59;;;;;;;3.67;1.85;;;;;;;;;;8376440;28;20307;-57
2022/08/20 18:26:04;;;;;;;2.75;1.42;;;;;;;;;;8376399;28;20028;-58
2022/08/20 18:30:19;;;;;;;3.72;1.67;;;;;;;;;;8374978;28;20406;-59
2022/08/20 18:34:29;;;;;;;2.78;1.98;;;;;;;;;;8380110;28;20131;-58
2022/08/20 18:38:30;;;;;;;1.77;1.63;;;;;;;;;;8386257;28;20024;-57
2022/08/20 18:42:32;;;;;;;2.55;1.70;;;;;;;;;;8387566;28;20329;-57
2022/08/20 18:46:32;;;;;;;2.50;1.60;;;;;;;;;;8388446;28;20499;-57
2022/08/20 18:50:38;;;;;;;5.73;2.00;;;;;;;;;;8388388;28;20043;-57
2022/08/20 18:54:48;;;;;;;3.20;1.95;;;;;;;;;;8390504;28;20251;-58
2022/08/20 18:58:53;;;;;;;2.58;1.75;;;;;;;;;;8392652;28;20032;-58
2022/08/20 19:02:56;;;;;;;5.68;2.08;;;;;;;;;;8394906;28;20564;-59
2022/08/20 19:07:01;;;;;;;4.05;2.00;;;;;;;;;;8396539;28;20025;-58
2022/08/20 19:11:11;;;;;;;5.18;1.90;;;;;;;;;;8389221;28;20028;-58
2022/08/20 19:15:13;;;;;;;4.82;2.00;;;;;;;;;;8390679;28;20525;-58
2022/08/20 19:19:18;;;;;;;4.65;2.05;;;;;;;;;;8391240;28;20115;-58
2022/08/20 19:23:21;;;;;;;5.35;2.20;;;;;;;;;;8389571;28;20043;-58
2022/08/20 19:27:22;;;;;;;3.77;1.67;;;;;;;;;;8389802;28;20035;-58
2022/08/20 19:31:23;;;;;;;5.95;2.20;;;;;;;;;;8389241;28;20067;-57
2022/08/20 19:35:23;;;;;;;2.58;1.80;;;;;;;;;;8391010;28;20115;-57
2022/08/20 19:39:26;;;;;;;4.13;2.08;;;;;;;;;;8390434;28;20081;-58
2022/08/20 19:43:28;;;;;;;3.63;2.00;;;;;;;;;;8385800;28;20016;-58
2022/08/20 19:47:47;;;;;;;6.13;2.15;;;;;;;;;;8387214;28;20028;-58
2022/08/20 19:51:50;;;;;;;5.32;2.47;;;;;;;;;;8383172;28;20445;-58
2022/08/20 19:55:58;;;;;;;6.05;1.90;;;;;;;;;;8389481;28;20032;-58
2022/08/20 20:00:02;;;;;;;6.25;2.53;;;;;;;;;;8390979;28;20261;-58
2022/08/20 20:04:06;;;;;;;5.28;2.35;;;;;;;;;;8384975;28;20235;-58
2022/08/20 20:08:06;;;;;;;3.33;2.00;;;;;;;;;;8384114;28;20029;-58
2022/08/20 20:12:09;;;;;;;5.30;2.10;;;;;;;;;;8377684;28;20063;-58
2022/08/20 20:16:11;;;;;;;3.93;2.10;;;;;;;;;;8380761;28;20036;-57
2022/08/20 20:20:26;;;;;;;7.72;2.50;;;;;;;;;;8376003;28;20440;-58
2022/08/20 20:24:28;;;;;;;7.47;2.10;;;;;;;;;;8376898;28;20107;-58
2022/08/20 20:28:29;;;;;;;8.93;2.47;;;;;;;;;;8377980;28;20455;-58
2022/08/20 20:32:32;;;;;;;3.60;2.22;;;;;;;;;;8376063;28;20040;-57
2022/08/20 20:36:37;;;;;;;3.47;2.50;;;;;;;;;;8376803;28;20465;-57
2022/08/20 20:40:45;;;;;;;6.30;2.30;;;;;;;;;;8379747;28;20051;-58
2022/08/20 20:44:45;;;;;;;4.15;2.03;;;;;;;;;;8379879;28;20123;-58
2022/08/20 20:48:47;;;;;;;5.28;2.20;;;;;;;;;;8376860;28;20041;-58
2022/08/20 20:52:50;;;;;;;3.92;2.30;;;;;;;;;;8374645;28;20035;-58
2022/08/20 20:56:58;;;;;;;4.13;2.20;;;;;;;;;;8373250;28;20107;-58
2022/08/20 21:00:58;;;;;;;5.13;2.35;;;;;;;;;;8369560;28;20032;-58
2022/08/20 21:04:58;;;;;;;4.07;2.25;;;;;;;;;;8374019;28;20103;-58
2022/08/20 21:08:59;;;;;;;5.22;2.50;;;;;;;;;;8372294;28;20035;-57
2022/08/20 21:13:02;;;;;;;5.30;2.30;;;;;;;;;;8370130;28;20454;-58
2022/08/20 21:17:04;;;;;;;4.90;2.15;;;;;;;;;;8369317;28;20028;-58
2022/08/20 21:21:05;;;;;;;5.07;2.65;;;;;;;;;;8367412;28;20032;-58
2022/08/20 21:25:05;;;;;;;5.50;2.80;;;;;;;;;;8369922;28;20511;-58
2022/08/20 21:29:07;;;;;;;6.63;2.42;;;;;;;;;;8370625;28;20051;-58
2022/08/20 21:33:08;;;;;;;6.72;2.63;;;;;;;;;;8367112;28;20078;-58
2022/08/20 21:37:08;;;;;;;5.07;2.28;;;;;;;;;;8367725;28;20029;-57
2022/08/20 21:41:09;;;;;;;6.00;2.83;;;;;;;;;;8368837;28;20024;-57
2022/08/20 21:45:11;;;;;;;4.90;2.60;;;;;;;;;;8365007;28;20032;-59
2022/08/20 21:49:12;;;;;;;4.97;2.55;;;;;;;;;;8366064;28;20020;-58
2022/08/20 21:53:12;;;;;;;6.47;2.67;;;;;;;;;;8364594;28;20016;-57
2022/08/20 21:57:17;;;;;;;6.97;2.67;;;;;;;;;;8363805;28;20023;-57
2022/08/20 22:01:18;;;;;;;4.15;2.30;;;;;;;;;;8363341;28;20033;-57
2022/08/20 22:05:18;;;;;;;6.32;2.75;;;;;;;;;;8361957;28;20483;-57
2022/08/20 22:09:18;;;;;;;4.70;2.47;;;;;;;;;;8369153;28;20056;-57
2022/08/20 22:13:22;;;;;;;6.10;2.60;;;;;;;;;;8370999;28;20092;-58
2022/08/20 22:17:22;;;;;;;4.32;2.60;;;;;;;;;;8367376;28;20033;-57
2022/08/20 22:21:23;;;;;;;7.00;2.70;;;;;;;;;;8372308;28;20307;-57
2022/08/20 22:25:24;;;;;;;5.70;2.60;;;;;;;;;;8367181;28;20036;-58
2022/08/20 22:29:24;;;;;;;5.05;2.47;;;;;;;;;;8364126;28;20383;-57
2022/08/20 22:33:24;;;;;;;6.30;2.60;;;;;;;;;;8365900;28;20353;-57
2022/08/20 22:37:27;;;;;;;6.22;2.47;;;;;;;;;;8370554;28;20024;-58
2022/08/20 22:41:27;;;;;;;5.50;2.28;;;;;;;;;;8369485;28;20581;-57
2022/08/20 22:45:28;;;;;;;4.10;2.40;;;;;;;;;;8367598;28;20036;-57
2022/08/20 22:49:30;;;;;;;5.70;2.63;;;;;;;;;;8366670;28;20500;-57
2022/08/20 22:53:30;;;;;;;6.32;2.90;;;;;;;;;;8367749;28;20020;-57
2022/08/20 22:57:30;;;;;;;5.55;2.63;;;;;;;;;;8362024;28;20448;-57
2022/08/20 23:01:30;;;;;;;5.50;2.55;;;;;;;;;;8366699;28;20417;-57
2022/08/20 23:05:32;;;;;;;7.72;2.40;;;;;;;;;;8375007;28;20024;-57
2022/08/20 23:09:32;;;;;;;6.80;2.50;;;;;;;;;;8379153;28;20161;-57
2022/08/20 23:13:32;;;;;;;5.80;2.90;;;;;;;;;;8385894;28;20020;-57
2022/08/20 23:17:33;;;;;;;5.63;2.72;;;;;;;;;;8381143;28;20464;-58
2022/08/20 23:21:33;;;;;;;7.70;2.65;;;;;;;;;;8380239;28;20034;-57
2022/08/20 23:25:34;;;;;;;6.20;2.60;;;;;;;;;;8372673;28;20418;-57
2022/08/20 23:29:34;;;;;;;4.30;2.40;;;;;;;;;;8373169;28;20552;-57
2022/08/20 23:33:34;;;;;;;4.95;2.47;;;;;;;;;;8384494;28;20445;-57
2022/08/20 23:37:38;;;;;;;5.63;2.20;;;;;;;;;;8387864;28;20057;-56
2022/08/20 23:41:39;;;;;;;4.78;2.30;;;;;;;;;;8385520;28;20043;-59
2022/08/20 23:45:39;;;;;;;4.00;2.33;;;;;;;;;;8371352;28;20096;-57
2022/08/20 23:49:40;;;;;;;5.90;2.53;;;;;;;;;;8385461;28;20108;-57
2022/08/20 23:53:40;;;;;;;6.03;2.25;;;;;;;;;;8391129;28;20036;-57
2022/08/20 23:57:41;;;;;;;5.90;2.22;;;;;;;;;;8394917;28;20031;-57
